createdAt,value
2022-11-27T05:31:08.014Z,3.10
2022-11-27T05:32:07.896Z,3.09
2022-11-27T05:33:07.890Z,3.05
2022-11-27T05:34:07.873Z,3.03
2022-11-27T05:35:07.877Z,3.06
2022-11-27T05:36:07.858Z,3.00
2022-11-27T05:37:07.864Z,2.95
2022-11-27T05:38:07.823Z,2.92
2022-11-27T05:39:07.811Z,3.00
2022-11-27T05:40:07.806Z,3.00
2022-11-27T05:41:07.803Z,2.97
2022-11-27T05:42:07.769Z,2.98
2022-11-27T05:43:07.780Z,3.00
2022-11-27T05:44:14.807Z,3.00
2022-11-27T05:45:07.728Z,2.98
2022-11-27T05:46:07.747Z,2.94
2022-11-27T05:47:07.830Z,2.89
2022-11-27T05:48:07.726Z,2.84
2022-11-27T05:49:07.687Z,2.82
2022-11-27T05:50:07.668Z,2.79
2022-11-27T05:51:07.665Z,2.81
2022-11-27T05:52:07.645Z,2.84
2022-11-27T05:53:07.636Z,2.82
2022-11-27T05:54:07.617Z,2.77
2022-11-27T05:55:07.627Z,2.74
2022-11-27T05:56:07.611Z,2.71
2022-11-27T05:57:07.601Z,2.71
2022-11-27T05:58:07.597Z,2.85
2022-11-27T05:59:07.558Z,2.87
2022-11-27T06:00:07.579Z,2.85
2022-11-27T06:01:07.525Z,2.81
2022-11-27T06:02:07.622Z,2.77
2022-11-27T06:03:07.635Z,2.74
2022-11-27T06:04:07.492Z,2.76
2022-11-27T06:05:07.483Z,2.82
2022-11-27T06:06:07.473Z,2.84
2022-11-27T06:07:07.463Z,2.84
2022-11-27T06:08:07.526Z,2.88
2022-11-27T06:09:12.538Z,2.94
2022-11-27T06:10:08.402Z,2.97
2022-11-27T06:11:07.434Z,3.03
2022-11-27T06:12:07.392Z,3.02
2022-11-27T06:13:07.385Z,2.92
2022-11-27T06:14:07.359Z,2.87
2022-11-27T06:15:07.385Z,2.81
2022-11-27T06:16:07.481Z,2.79
2022-11-27T06:17:07.440Z,2.89
2022-11-27T06:18:07.309Z,2.92
2022-11-27T06:19:07.338Z,2.89
2022-11-27T06:20:07.398Z,2.88
2022-11-27T06:21:07.291Z,2.88
2022-11-27T06:22:07.272Z,2.87
2022-11-27T06:23:07.249Z,2.94
2022-11-27T06:24:07.238Z,3.02
2022-11-27T06:25:07.241Z,3.06
2022-11-27T06:26:07.230Z,3.00
2022-11-27T06:27:07.218Z,2.92
2022-11-27T06:28:07.180Z,2.88
2022-11-27T06:29:07.193Z,2.85
2022-11-27T06:30:07.187Z,2.84
2022-11-27T06:31:07.215Z,2.77
2022-11-27T06:32:07.184Z,2.74
2022-11-27T06:33:07.127Z,2.81
2022-11-27T06:34:07.098Z,2.94
2022-11-27T06:35:07.098Z,2.97
2022-11-27T06:36:07.107Z,2.98
2022-11-27T06:37:12.894Z,2.97
2022-11-27T06:38:08.113Z,2.94
2022-11-27T06:39:07.046Z,2.91
2022-11-27T06:40:07.028Z,2.87
2022-11-27T06:41:07.014Z,2.87
2022-11-27T06:42:07.047Z,2.82
2022-11-27T06:43:06.998Z,2.84
2022-11-27T06:44:06.980Z,2.84
2022-11-27T06:45:06.955Z,2.85
2022-11-27T06:46:07.022Z,2.88
2022-11-27T06:47:06.948Z,2.94
2022-11-27T06:48:06.926Z,3.00
2022-11-27T06:49:06.913Z,3.02
2022-11-27T06:50:06.904Z,2.98
2022-11-27T06:51:06.886Z,2.91
2022-11-27T06:52:06.883Z,2.84
2022-11-27T06:53:06.854Z,2.77
2022-11-27T06:54:06.852Z,2.71
2022-11-27T06:55:06.832Z,2.67
2022-11-27T06:56:06.823Z,2.67
2022-11-27T06:57:06.825Z,2.70
2022-11-27T06:58:06.801Z,2.77
2022-11-27T06:59:06.782Z,2.87
2022-11-27T07:00:06.814Z,2.94
2022-11-27T07:01:06.805Z,2.91
2022-11-27T07:02:06.834Z,3.02
2022-11-27T07:03:06.731Z,3.13
2022-11-27T07:04:06.741Z,3.20
2022-11-27T07:05:06.700Z,3.15
2022-11-27T07:06:06.701Z,3.12
2022-11-27T07:07:06.690Z,3.23
2022-11-27T07:08:06.697Z,3.30
2022-11-27T07:09:06.658Z,3.39
2022-11-27T07:10:06.649Z,3.36
2022-11-27T07:11:06.628Z,3.42
2022-11-27T07:12:06.648Z,3.50
2022-11-27T07:13:06.603Z,3.58
2022-11-27T07:14:06.595Z,3.61
2022-11-27T07:15:06.580Z,3.62
2022-11-27T07:16:06.642Z,3.53
2022-11-27T07:17:06.569Z,3.44
2022-11-27T07:18:06.548Z,3.36
2022-11-27T07:19:06.526Z,3.28
2022-11-27T07:20:06.517Z,3.24
2022-11-27T07:21:06.506Z,3.23
2022-11-27T07:22:06.588Z,3.28
2022-11-27T07:23:06.478Z,3.39
2022-11-27T07:24:06.476Z,3.46
2022-11-27T07:25:06.456Z,3.46
2022-11-27T07:26:06.448Z,3.42
2022-11-27T07:27:06.487Z,3.42
2022-11-27T07:28:06.417Z,3.42
2022-11-27T07:29:06.396Z,3.36
2022-11-27T07:30:06.396Z,3.33
2022-11-27T07:31:06.443Z,3.39
2022-11-27T07:32:06.414Z,3.42
2022-11-27T07:33:06.355Z,3.40
2022-11-27T07:34:10.364Z,3.34
2022-11-27T07:35:07.324Z,3.31
2022-11-27T07:36:06.319Z,3.31
2022-11-27T07:37:06.314Z,3.30
2022-11-27T07:38:06.293Z,3.36
2022-11-27T07:39:06.274Z,3.46
2022-11-27T07:40:06.287Z,3.57
2022-11-27T07:41:06.256Z,3.57
2022-11-27T07:42:30.982Z,3.64
2022-11-27T07:43:07.223Z,3.75
2022-11-27T07:44:06.222Z,3.79
2022-11-27T07:45:06.213Z,3.80
2022-11-27T07:46:06.244Z,3.79
2022-11-27T07:47:06.191Z,3.76
2022-11-27T07:48:06.182Z,3.72
2022-11-27T07:49:06.153Z,3.80
2022-11-27T07:50:06.145Z,3.97
2022-11-27T07:51:06.129Z,4.01
2022-11-27T07:52:06.141Z,4.04
2022-11-27T07:53:06.112Z,4.03
2022-11-27T07:54:06.091Z,3.97
2022-11-27T07:55:06.080Z,3.90
2022-11-27T07:56:06.061Z,3.86
2022-11-27T07:57:06.049Z,3.85
2022-11-27T07:58:06.051Z,3.79
2022-11-27T07:59:06.030Z,3.76
2022-11-27T08:00:06.022Z,3.70
2022-11-27T08:01:06.037Z,3.68
2022-11-27T08:02:05.998Z,3.70
2022-11-27T08:03:05.979Z,3.70
2022-11-27T08:04:05.969Z,3.71
2022-11-27T08:05:12.084Z,3.71
2022-11-27T08:06:06.943Z,3.75
2022-11-27T08:07:05.929Z,3.79
2022-11-27T08:08:05.944Z,3.83
2022-11-27T08:09:05.897Z,3.83
2022-11-27T08:10:05.887Z,3.88
2022-11-27T08:11:05.875Z,3.90
2022-11-27T08:12:05.867Z,3.96
2022-11-27T08:13:05.877Z,3.97
2022-11-27T08:14:05.846Z,4.03
2022-11-27T08:15:05.820Z,4.07
2022-11-27T08:16:05.842Z,4.10
2022-11-27T08:17:05.804Z,4.18
2022-11-27T08:18:05.807Z,4.26
2022-11-27T08:19:05.806Z,4.33
2022-11-27T08:20:05.766Z,4.37
2022-11-27T08:21:05.745Z,4.40
2022-11-27T08:22:05.745Z,4.37
2022-11-27T08:23:05.734Z,4.40
2022-11-27T08:24:05.714Z,4.44
2022-11-27T08:25:05.694Z,4.47
2022-11-27T08:26:05.694Z,4.54
2022-11-27T08:27:05.686Z,4.62
2022-11-27T08:28:05.673Z,4.70
2022-11-27T08:29:05.674Z,4.80
2022-11-27T08:30:05.642Z,4.88
2022-11-27T08:31:05.621Z,4.91
2022-11-27T08:32:05.699Z,5.01
2022-11-27T08:33:05.611Z,5.10
2022-11-27T08:34:05.598Z,5.12
2022-11-27T08:35:05.570Z,5.12
2022-11-27T08:36:07.311Z,5.20
2022-11-27T08:37:05.542Z,5.30
2022-11-27T08:38:05.552Z,5.38
2022-11-27T08:39:05.512Z,5.43
2022-11-27T08:40:05.523Z,5.49
2022-11-27T08:41:05.491Z,5.50
2022-11-27T08:42:05.501Z,5.53
2022-11-27T08:43:05.490Z,5.60
2022-11-27T08:44:09.353Z,5.63
2022-11-27T08:45:05.448Z,5.70
2022-11-27T08:46:05.475Z,5.77
2022-11-27T08:47:05.419Z,5.88
2022-11-27T08:48:05.411Z,6.03
2022-11-27T08:49:05.391Z,6.10
2022-11-27T08:50:05.383Z,6.21
2022-11-27T08:51:05.370Z,6.28
2022-11-27T08:52:05.348Z,6.29
2022-11-27T08:53:05.351Z,6.35
2022-11-27T08:54:05.339Z,6.44
2022-11-27T08:55:05.343Z,6.47
2022-11-27T08:56:05.344Z,6.44
2022-11-27T08:57:05.309Z,6.40
2022-11-27T08:58:05.320Z,6.40
2022-11-27T08:59:05.319Z,6.41
2022-11-27T09:00:05.250Z,6.43
2022-11-27T09:01:05.295Z,6.46
2022-11-27T09:02:05.226Z,6.46
2022-11-27T09:03:05.260Z,6.56
2022-11-27T09:04:05.239Z,6.65
2022-11-27T09:05:05.188Z,6.73
2022-11-27T09:06:05.187Z,6.76
2022-11-27T09:07:05.168Z,6.76
2022-11-27T09:08:05.146Z,6.80
2022-11-27T09:09:05.152Z,6.91
2022-11-27T09:10:05.119Z,6.89
2022-11-27T09:11:05.107Z,6.81
2022-11-27T09:12:05.115Z,6.72
2022-11-27T09:13:05.087Z,6.81
2022-11-27T09:14:05.085Z,6.86
2022-11-27T09:15:05.077Z,6.86
2022-11-27T09:16:05.134Z,6.90
2022-11-27T09:17:05.025Z,6.86
2022-11-27T09:18:05.018Z,6.86
2022-11-27T09:19:05.030Z,6.87
2022-11-27T09:20:04.986Z,6.91
2022-11-27T09:21:04.997Z,7.01
2022-11-27T09:22:04.961Z,7.08
2022-11-27T09:23:07.889Z,7.09
2022-11-27T09:24:05.944Z,7.12
2022-11-27T09:25:04.935Z,7.20
2022-11-27T09:26:04.915Z,7.26
2022-11-27T09:27:04.905Z,7.32
2022-11-27T09:28:04.884Z,7.31
2022-11-27T09:29:04.883Z,7.38
2022-11-27T09:30:04.865Z,7.42
2022-11-27T09:31:04.843Z,7.42
2022-11-27T09:32:04.896Z,7.38
2022-11-27T09:33:04.831Z,7.41
2022-11-27T09:34:04.829Z,7.45
2022-11-27T09:35:04.817Z,7.40
2022-11-27T09:36:04.784Z,7.37
2022-11-27T09:37:04.773Z,7.41
2022-11-27T09:38:04.753Z,7.37
2022-11-27T09:39:04.752Z,7.42
2022-11-27T09:40:04.761Z,7.42
2022-11-27T09:41:04.722Z,7.38
2022-11-27T09:42:04.711Z,7.35
2022-11-27T09:43:04.702Z,7.27
2022-11-27T09:44:04.692Z,7.24
2022-11-27T09:45:04.671Z,7.16
2022-11-27T09:46:04.720Z,7.16
2022-11-27T09:47:04.641Z,7.22
2022-11-27T09:48:04.641Z,7.27
2022-11-27T09:49:04.644Z,7.35
2022-11-27T09:50:04.601Z,7.29
2022-11-27T09:51:04.590Z,7.27
2022-11-27T09:52:04.573Z,7.23
2022-11-27T09:53:04.570Z,7.20
2022-11-27T09:54:04.577Z,7.16
2022-11-27T09:55:04.540Z,7.09
2022-11-27T09:56:04.520Z,7.09
2022-11-27T09:57:04.510Z,7.13
2022-11-27T09:58:04.499Z,7.15
2022-11-27T09:59:04.490Z,7.09
2022-11-27T10:00:04.488Z,7.09
2022-11-27T10:01:04.465Z,7.04
2022-11-27T10:02:04.528Z,7.02
2022-11-27T10:03:04.558Z,7.04
2022-11-27T10:04:04.418Z,7.01
2022-11-27T10:05:20.084Z,7.04
2022-11-27T10:06:05.408Z,7.07
2022-11-27T10:07:04.390Z,6.98
2022-11-27T10:08:06.978Z,6.99
2022-11-27T10:09:04.362Z,7.07
2022-11-27T10:10:04.368Z,7.05
2022-11-27T10:11:04.344Z,7.16
2022-11-27T10:12:04.316Z,7.19
2022-11-27T10:13:04.307Z,7.22
2022-11-27T10:14:04.287Z,7.27
2022-11-27T10:15:04.306Z,7.37
2022-11-27T10:16:04.297Z,7.49
2022-11-27T10:17:04.375Z,7.45
2022-11-27T10:18:04.244Z,7.42
2022-11-27T10:19:04.236Z,7.41
2022-11-27T10:20:04.226Z,7.44
2022-11-27T10:21:04.207Z,7.50
2022-11-27T10:22:04.186Z,7.52
2022-11-27T10:23:04.183Z,7.55
2022-11-27T10:24:04.165Z,7.56
2022-11-27T10:25:04.164Z,7.55
2022-11-27T10:26:04.140Z,7.52
2022-11-27T10:27:04.129Z,7.49
2022-11-27T10:28:04.105Z,7.42
2022-11-27T10:29:04.095Z,7.42
2022-11-27T10:30:04.094Z,7.45
2022-11-27T10:31:04.074Z,7.47
2022-11-27T10:32:04.095Z,7.49
2022-11-27T10:33:04.129Z,7.49
2022-11-27T10:34:04.040Z,7.49
2022-11-27T10:35:04.035Z,7.52
2022-11-27T10:36:04.003Z,7.63
2022-11-27T10:37:04.004Z,7.63
2022-11-27T10:38:07.560Z,7.66
2022-11-27T10:39:03.972Z,7.71
2022-11-27T10:40:03.962Z,7.72
2022-11-27T10:41:03.947Z,7.66
2022-11-27T10:42:03.930Z,7.66
2022-11-27T10:43:03.938Z,7.63
2022-11-27T10:44:03.903Z,7.66
2022-11-27T10:45:03.903Z,7.67
2022-11-27T10:46:03.891Z,7.69
2022-11-27T10:47:03.863Z,7.72
2022-11-27T10:48:03.932Z,7.77
2022-11-27T10:49:03.831Z,7.78
2022-11-27T10:50:03.832Z,7.77
2022-11-27T10:51:03.810Z,7.79
2022-11-27T10:52:03.795Z,7.79
2022-11-27T10:53:03.798Z,7.82
2022-11-27T10:54:03.771Z,7.82
2022-11-27T10:55:03.761Z,7.84
2022-11-27T10:56:03.781Z,7.84
2022-11-27T10:57:03.730Z,7.85
2022-11-27T10:58:03.769Z,7.90
2022-11-27T10:59:03.700Z,7.90
2022-11-27T11:00:03.691Z,7.89
2022-11-27T11:01:03.752Z,7.92
2022-11-27T11:02:03.719Z,7.94
2022-11-27T11:03:03.666Z,7.99
2022-11-27T11:04:18.417Z,8.02
2022-11-27T11:05:31.101Z,8.02
2022-11-27T11:06:20.232Z,8.03
2022-11-27T11:07:04.599Z,8.02
2022-11-27T11:08:03.650Z,7.97
2022-11-27T11:09:03.594Z,8.00
2022-11-27T11:10:03.567Z,8.00
2022-11-27T11:11:03.579Z,8.00
2022-11-27T11:12:03.559Z,7.99
2022-11-27T11:13:03.528Z,8.00
2022-11-27T11:14:03.517Z,7.99
2022-11-27T11:15:03.496Z,8.02
2022-11-27T11:16:03.532Z,8.04
2022-11-27T11:17:03.536Z,8.08
2022-11-27T11:18:03.494Z,8.11
2022-11-27T11:19:03.448Z,8.10
2022-11-27T11:20:03.457Z,8.14
2022-11-27T11:21:03.430Z,8.12
2022-11-27T11:22:03.422Z,8.14
2022-11-27T11:23:03.395Z,8.15
2022-11-27T11:24:03.417Z,8.15
2022-11-27T11:25:03.364Z,8.17
2022-11-27T11:26:03.456Z,8.15
2022-11-27T11:27:03.336Z,8.15
2022-11-27T11:28:03.346Z,8.17
2022-11-27T11:29:03.383Z,8.18
2022-11-27T11:30:03.344Z,8.17
2022-11-27T11:31:03.386Z,8.20
2022-11-27T11:32:03.451Z,8.20
2022-11-27T11:33:03.263Z,8.21
2022-11-27T11:34:03.265Z,8.22
2022-11-27T11:35:03.299Z,8.26
2022-11-27T11:36:03.245Z,8.26
2022-11-27T11:37:03.204Z,8.28
2022-11-27T11:38:03.207Z,8.26
2022-11-27T11:39:03.185Z,8.25
2022-11-27T11:40:03.173Z,8.29
2022-11-27T11:41:03.164Z,8.32
2022-11-27T11:42:03.154Z,8.32
2022-11-27T11:43:03.155Z,8.33
2022-11-27T11:44:03.137Z,8.37
2022-11-27T11:45:10.156Z,8.42
2022-11-27T11:46:03.160Z,8.45
2022-11-27T11:47:03.094Z,8.53
2022-11-27T11:48:03.077Z,8.60
2022-11-27T11:49:03.069Z,8.62
2022-11-27T11:50:03.062Z,8.60
2022-11-27T11:51:03.037Z,8.63
2022-11-27T11:52:03.035Z,8.62
2022-11-27T11:53:03.005Z,8.66
2022-11-27T11:54:02.986Z,8.72
2022-11-27T11:55:02.979Z,8.75
2022-11-27T11:56:02.958Z,8.78
2022-11-27T11:57:02.970Z,8.78
2022-11-27T11:58:02.954Z,8.76
2022-11-27T11:59:02.938Z,8.81
2022-11-27T12:00:02.914Z,8.83
2022-11-27T12:01:25.970Z,8.83
2022-11-27T12:02:03.945Z,8.81
2022-11-27T12:03:02.908Z,8.81
2022-11-27T12:04:02.891Z,8.87
2022-11-27T12:05:02.923Z,8.91
2022-11-27T12:06:02.833Z,8.93
2022-11-27T12:07:02.833Z,8.93
2022-11-27T12:08:02.870Z,8.91
2022-11-27T12:09:02.793Z,8.93
2022-11-27T12:10:02.783Z,8.91
2022-11-27T12:11:02.773Z,8.91
2022-11-27T12:12:02.762Z,8.91
2022-11-27T12:13:02.743Z,8.93
2022-11-27T12:14:02.728Z,8.91
2022-11-27T12:15:02.722Z,8.91
2022-11-27T12:16:02.702Z,8.87
2022-11-27T12:17:02.825Z,8.86
2022-11-27T12:18:02.681Z,8.86
2022-11-27T12:19:02.671Z,8.87
2022-11-27T12:20:02.655Z,8.87
2022-11-27T12:21:02.641Z,8.87
2022-11-27T12:22:02.631Z,8.87
2022-11-27T12:23:02.620Z,8.87
2022-11-27T12:24:02.601Z,8.87
2022-11-27T12:25:02.592Z,8.87
2022-11-27T12:26:02.581Z,8.87
2022-11-27T12:27:02.583Z,8.91
2022-11-27T12:28:02.558Z,8.96
2022-11-27T12:29:02.540Z,8.93
2022-11-27T12:30:02.534Z,8.91
2022-11-27T12:31:02.596Z,8.90
2022-11-27T12:32:02.587Z,8.86
2022-11-27T12:33:02.490Z,8.88
2022-11-27T12:34:02.479Z,8.91
2022-11-27T12:35:02.473Z,8.91
2022-11-27T12:36:02.451Z,8.96
2022-11-27T12:37:02.461Z,8.97
2022-11-27T12:38:02.440Z,8.97
2022-11-27T12:39:02.439Z,8.96
2022-11-27T12:40:02.412Z,8.97
2022-11-27T12:41:02.389Z,8.99
2022-11-27T12:42:02.390Z,8.96
2022-11-27T12:43:02.377Z,8.97
2022-11-27T12:44:02.357Z,9.01
2022-11-27T12:45:02.348Z,8.97
2022-11-27T12:46:02.360Z,8.96
2022-11-27T12:47:02.340Z,8.96
2022-11-27T12:48:02.298Z,8.93
2022-11-27T12:49:02.308Z,8.94
2022-11-27T12:50:02.278Z,8.94
2022-11-27T12:51:02.275Z,8.94
2022-11-27T12:52:02.258Z,8.94
2022-11-27T12:53:02.270Z,8.96
2022-11-27T12:54:02.227Z,8.96
2022-11-27T12:55:02.219Z,8.94
2022-11-27T12:56:02.198Z,8.96
2022-11-27T12:57:02.197Z,8.97
2022-11-27T12:58:02.197Z,8.96
2022-11-27T12:59:02.174Z,8.94
2022-11-27T13:00:02.147Z,8.94
2022-11-27T13:01:02.248Z,8.94
2022-11-27T13:02:02.246Z,8.97
2022-11-27T13:03:02.176Z,8.99
2022-11-27T13:04:02.114Z,8.97
2022-11-27T13:05:02.098Z,9.01
2022-11-27T13:06:02.067Z,9.04
2022-11-27T13:07:02.146Z,9.05
2022-11-27T13:08:02.195Z,9.04
2022-11-27T13:09:02.038Z,9.06
2022-11-27T13:10:02.024Z,9.06
2022-11-27T13:11:02.006Z,9.09
2022-11-27T13:12:01.996Z,9.10
2022-11-27T13:13:01.995Z,9.13
2022-11-27T13:14:01.966Z,9.12
2022-11-27T13:15:01.964Z,9.09
2022-11-27T13:16:02.011Z,9.16
2022-11-27T13:17:02.003Z,9.15
2022-11-27T13:18:01.933Z,9.16
2022-11-27T13:19:01.915Z,9.16
2022-11-27T13:20:01.913Z,9.18
2022-11-27T13:21:01.895Z,9.20
2022-11-27T13:22:01.884Z,9.20
2022-11-27T13:23:01.894Z,9.21
2022-11-27T13:24:01.843Z,9.21
2022-11-27T13:25:01.835Z,9.20
2022-11-27T13:26:01.823Z,9.20
2022-11-27T13:27:01.812Z,9.20
2022-11-27T13:28:01.805Z,9.18
2022-11-27T13:29:01.782Z,9.20
2022-11-27T13:30:01.763Z,9.18
2022-11-27T13:31:01.762Z,9.18
2022-11-27T13:32:01.828Z,9.16
2022-11-27T13:33:01.768Z,9.18
2022-11-27T13:34:01.725Z,9.16
2022-11-27T13:35:01.711Z,9.16
2022-11-27T13:36:01.702Z,9.20
2022-11-27T13:37:01.829Z,9.20
2022-11-27T13:38:01.682Z,9.20
2022-11-27T13:39:01.687Z,9.21
2022-11-27T13:40:01.640Z,9.18
2022-11-27T13:41:01.632Z,9.16
2022-11-27T13:42:01.631Z,9.18
2022-11-27T13:43:01.631Z,9.20
2022-11-27T13:44:01.710Z,9.18
2022-11-27T13:45:01.581Z,9.18
2022-11-27T13:46:01.617Z,9.16
2022-11-27T13:47:01.560Z,9.15
2022-11-27T13:48:01.550Z,9.16
2022-11-27T13:49:01.538Z,9.16
2022-11-27T13:50:01.509Z,9.20
2022-11-27T13:51:01.512Z,9.18
2022-11-27T13:52:01.488Z,9.21
2022-11-27T13:53:01.493Z,9.21
2022-11-27T13:54:01.490Z,9.24
2022-11-27T13:55:01.467Z,9.24
2022-11-27T13:56:01.439Z,9.20
2022-11-27T13:57:01.430Z,9.21
2022-11-27T13:58:01.448Z,9.21
2022-11-27T13:59:01.399Z,9.23
2022-11-27T14:00:01.401Z,9.20
2022-11-27T14:01:01.416Z,9.15
2022-11-27T14:02:01.419Z,9.16
2022-11-27T14:03:01.366Z,9.10
2022-11-27T14:04:01.338Z,9.06
2022-11-27T14:05:01.342Z,9.04
2022-11-27T14:06:01.309Z,9.12
2022-11-27T14:07:01.307Z,9.12
2022-11-27T14:08:01.424Z,9.09
2022-11-27T14:09:01.276Z,9.05
2022-11-27T14:10:01.291Z,9.06
2022-11-27T14:11:01.257Z,9.13
2022-11-27T14:12:01.228Z,9.10
2022-11-27T14:13:01.251Z,9.05
2022-11-27T14:14:01.207Z,9.04
2022-11-27T14:15:01.203Z,8.99
2022-11-27T14:16:01.242Z,8.99
2022-11-27T14:17:01.166Z,8.99
2022-11-27T14:18:01.167Z,8.97
2022-11-27T14:19:01.149Z,8.96
2022-11-27T14:20:01.137Z,8.97
2022-11-27T14:21:01.115Z,8.96
2022-11-27T14:22:01.107Z,9.02
2022-11-27T14:23:11.660Z,9.01
2022-11-27T14:24:02.076Z,9.05
2022-11-27T14:25:01.079Z,9.09
2022-11-27T14:26:01.058Z,9.10
2022-11-27T14:27:01.043Z,9.09
2022-11-27T14:28:01.047Z,9.02
2022-11-27T14:29:01.015Z,9.02
2022-11-27T14:30:00.997Z,9.02
2022-11-27T14:31:01.005Z,9.04
2022-11-27T14:32:01.044Z,8.97
2022-11-27T14:33:00.965Z,8.94
2022-11-27T14:34:15.646Z,8.94
2022-11-27T14:35:01.955Z,8.96
2022-11-27T14:36:00.926Z,8.93
2022-11-27T14:37:00.916Z,8.86
2022-11-27T14:38:00.896Z,8.79
2022-11-27T14:39:00.897Z,8.72
2022-11-27T14:40:00.874Z,8.65
2022-11-27T14:41:00.865Z,8.60
2022-11-27T14:42:00.843Z,8.53
2022-11-27T14:43:00.843Z,8.48
2022-11-27T14:44:00.833Z,8.42
2022-11-27T14:45:01.656Z,8.36
2022-11-27T14:46:00.815Z,8.29
2022-11-27T14:47:00.824Z,8.25
2022-11-27T14:48:00.773Z,8.18
2022-11-27T14:49:00.801Z,8.14
2022-11-27T14:50:00.752Z,8.11
2022-11-27T14:51:00.731Z,8.10
2022-11-27T14:52:00.723Z,8.08
2022-11-27T14:53:00.711Z,8.04
2022-11-27T14:54:00.703Z,8.11
2022-11-27T14:55:00.681Z,8.18
2022-11-27T14:56:00.684Z,8.29
2022-11-27T14:57:00.662Z,8.33
2022-11-27T14:58:00.653Z,8.35
2022-11-27T14:59:00.659Z,8.37
2022-11-27T15:00:00.622Z,8.37
2022-11-27T15:01:00.603Z,8.39
2022-11-27T15:02:00.631Z,8.40
2022-11-27T15:03:00.691Z,8.39
2022-11-27T15:04:00.583Z,8.36
2022-11-27T15:05:00.553Z,8.30
2022-11-27T15:06:00.543Z,8.30
2022-11-27T15:07:00.530Z,8.29
2022-11-27T15:08:00.573Z,8.25
2022-11-27T15:09:29.622Z,8.20
2022-11-27T15:10:01.491Z,8.18
2022-11-27T15:11:00.481Z,8.12
2022-11-27T15:12:00.469Z,8.12
2022-11-27T15:13:00.467Z,8.17
2022-11-27T15:14:00.449Z,8.20
2022-11-27T15:15:00.436Z,8.22
2022-11-27T15:16:00.436Z,8.25
2022-11-27T15:17:00.399Z,8.26
2022-11-27T15:18:00.400Z,8.28
2022-11-27T15:19:00.378Z,8.29
2022-11-27T15:20:00.366Z,8.33
2022-11-27T15:21:00.353Z,8.29
2022-11-27T15:22:00.337Z,8.22
2022-11-27T15:23:00.317Z,8.17
2022-11-27T15:24:00.318Z,8.12
2022-11-27T15:25:00.301Z,8.15
2022-11-27T15:26:00.280Z,8.18
2022-11-27T15:27:00.275Z,8.20
2022-11-27T15:28:00.258Z,8.21
2022-11-27T15:29:00.256Z,8.22
2022-11-27T15:30:00.327Z,8.29
2022-11-27T15:31:00.225Z,8.29
2022-11-27T15:32:00.251Z,8.29
2022-11-27T15:33:00.196Z,8.25
2022-11-27T15:34:00.205Z,8.17
2022-11-27T15:35:00.175Z,8.14
2022-11-27T15:36:00.154Z,8.20
2022-11-27T15:37:00.148Z,8.21
2022-11-27T15:38:00.147Z,8.25
2022-11-27T15:39:00.136Z,8.26
2022-11-27T15:40:00.112Z,8.29
2022-11-27T15:41:00.087Z,8.28
2022-11-27T15:42:00.089Z,8.30
2022-11-27T15:43:00.075Z,8.29
2022-11-27T15:44:00.044Z,8.28
2022-11-27T15:45:00.056Z,8.28
2022-11-27T15:46:00.068Z,8.29
2022-11-27T15:47:00.016Z,8.28
2022-11-27T15:47:59.994Z,8.26
2022-11-27T15:48:59.994Z,8.26
2022-11-27T15:49:59.982Z,8.25
2022-11-27T15:50:59.982Z,8.18
2022-11-27T15:51:59.945Z,8.15
2022-11-27T15:52:59.944Z,8.12
2022-11-27T15:53:59.921Z,8.04
2022-11-27T15:54:59.924Z,7.99
2022-11-27T15:55:59.893Z,7.94
2022-11-27T15:56:59.885Z,7.96
2022-11-27T15:57:59.874Z,7.97
2022-11-27T15:58:59.863Z,7.97
2022-11-27T15:59:59.854Z,7.96
2022-11-27T16:00:59.910Z,7.96
2022-11-27T16:01:59.997Z,7.93
2022-11-27T16:02:59.802Z,7.89
2022-11-27T16:03:59.792Z,7.82
2022-11-27T16:04:59.792Z,7.78
2022-11-27T16:05:59.781Z,7.71
2022-11-27T16:06:59.772Z,7.62
2022-11-27T16:07:59.772Z,7.60
2022-11-27T16:08:59.731Z,7.58
2022-11-27T16:09:59.731Z,7.56
2022-11-27T16:10:59.701Z,7.56
2022-11-27T16:11:59.704Z,7.55
2022-11-27T16:12:59.681Z,7.52
2022-11-27T16:13:59.660Z,7.53
2022-11-27T16:14:59.670Z,7.50
2022-11-27T16:15:59.728Z,7.47
2022-11-27T16:16:59.691Z,7.47
2022-11-27T16:17:59.611Z,7.47
2022-11-27T16:18:59.611Z,7.49
2022-11-27T16:19:59.600Z,7.49
2022-11-27T16:20:59.570Z,7.49
2022-11-27T16:21:59.560Z,7.50
2022-11-27T16:22:59.560Z,7.52
2022-11-27T16:23:59.556Z,7.55
2022-11-27T16:24:59.537Z,7.56
2022-11-27T16:25:59.509Z,7.56
2022-11-27T16:26:59.500Z,7.59
2022-11-27T16:28:02.763Z,7.62
2022-11-27T16:28:59.472Z,7.66
2022-11-27T16:29:59.468Z,7.69
2022-11-27T16:30:59.500Z,7.72
2022-11-27T16:31:59.492Z,7.78
2022-11-27T16:32:59.417Z,7.81
2022-11-27T16:34:00.097Z,7.84
2022-11-27T16:34:59.428Z,7.87
2022-11-27T16:35:59.379Z,7.87
2022-11-27T16:36:59.397Z,7.89
2022-11-27T16:37:59.382Z,7.89
2022-11-27T16:38:59.339Z,7.89
2022-11-27T16:39:59.396Z,7.89
2022-11-27T16:40:59.316Z,7.90
2022-11-27T16:41:59.325Z,7.97
2022-11-27T16:42:59.296Z,7.97
2022-11-27T16:43:59.273Z,7.96
2022-11-27T16:44:59.278Z,7.90
2022-11-27T16:45:59.328Z,7.90
2022-11-27T16:46:59.256Z,7.89
2022-11-27T16:47:59.233Z,7.90
2022-11-27T16:48:59.239Z,7.92
2022-11-27T16:49:59.224Z,7.94
2022-11-27T16:50:59.184Z,7.93
2022-11-27T16:51:59.173Z,7.93
2022-11-27T16:52:59.154Z,7.94
2022-11-27T16:53:59.142Z,7.93
2022-11-27T16:54:59.135Z,7.93
2022-11-27T16:55:59.144Z,7.90
2022-11-27T16:56:59.112Z,7.90
2022-11-27T16:57:59.092Z,7.90
2022-11-27T16:59:02.779Z,7.92
2022-11-27T16:59:59.097Z,7.92
2022-11-27T17:00:59.144Z,7.92
2022-11-27T17:01:59.097Z,7.92
2022-11-27T17:02:59.035Z,7.94
2022-11-27T17:03:59.013Z,7.97
2022-11-27T17:04:59.005Z,7.96
2022-11-27T17:05:59.002Z,7.96
2022-11-27T17:06:58.973Z,7.96
2022-11-27T17:07:59.019Z,7.96
2022-11-27T17:08:58.957Z,7.94
2022-11-27T17:09:58.932Z,7.97
2022-11-27T17:10:58.935Z,7.97
2022-11-27T17:11:58.913Z,7.97
2022-11-27T17:12:58.902Z,7.97
2022-11-27T17:13:58.883Z,7.97
2022-11-27T17:14:58.873Z,7.96
2022-11-27T17:15:58.922Z,7.97
2022-11-27T17:16:58.978Z,7.96
2022-11-27T17:17:59.871Z,7.97
2022-11-27T17:18:58.822Z,7.96
2022-11-27T17:19:58.808Z,7.94
2022-11-27T17:20:58.802Z,7.93
2022-11-27T17:21:58.778Z,7.94
2022-11-27T17:22:58.772Z,7.93
2022-11-27T17:23:58.823Z,7.93
2022-11-27T17:24:58.750Z,7.90
2022-11-27T17:25:58.759Z,7.89
2022-11-27T17:26:58.719Z,7.89
2022-11-27T17:27:58.699Z,7.85
2022-11-27T17:28:58.690Z,7.84
2022-11-27T17:29:58.680Z,7.82
2022-11-27T17:30:58.689Z,7.79
2022-11-27T17:31:58.679Z,7.77
2022-11-27T17:32:58.639Z,7.77
2022-11-27T17:33:58.620Z,7.75
2022-11-27T17:34:58.609Z,7.74
2022-11-27T17:35:58.609Z,7.74
2022-11-27T17:36:58.587Z,7.74
2022-11-27T17:37:58.568Z,7.74
2022-11-27T17:38:58.568Z,7.71
2022-11-27T17:39:58.544Z,7.72
2022-11-27T17:40:58.558Z,7.72
2022-11-27T17:41:58.517Z,7.71
2022-11-27T17:42:58.507Z,7.71
2022-11-27T17:43:58.489Z,7.71
2022-11-27T17:45:49.119Z,7.71
2022-11-27T17:46:49.030Z,7.71
2022-11-27T17:47:49.011Z,7.71
2022-11-27T17:48:48.995Z,7.71
2022-11-27T17:49:48.992Z,7.71
2022-11-27T17:50:48.964Z,7.69
2022-11-27T17:51:48.994Z,7.69
2022-11-27T17:52:48.944Z,7.67
2022-11-27T17:53:48.941Z,7.67
2022-11-27T17:54:48.927Z,7.66
2022-11-27T17:55:48.902Z,7.69
2022-11-27T17:56:48.894Z,7.71
2022-11-27T17:57:48.880Z,7.75
2022-11-27T17:58:48.858Z,7.78
2022-11-27T17:59:48.859Z,7.82
2022-11-27T18:00:48.951Z,7.84
2022-11-27T18:01:48.901Z,7.85
2022-11-27T18:02:48.800Z,7.87
2022-11-27T18:03:48.802Z,7.87
2022-11-27T18:04:48.790Z,7.85
2022-11-27T18:05:48.774Z,7.85
2022-11-27T18:06:48.762Z,7.85
2022-11-27T18:07:48.802Z,7.89
2022-11-27T18:08:48.728Z,7.90
2022-11-27T18:09:48.719Z,7.94
2022-11-27T18:10:48.698Z,7.96
2022-11-27T18:11:48.707Z,7.97
2022-11-27T18:12:48.677Z,7.97
2022-11-27T18:13:48.666Z,7.97
2022-11-27T18:14:48.647Z,7.99
2022-11-27T18:15:48.640Z,7.97
2022-11-27T18:16:48.762Z,7.96
2022-11-27T18:17:48.617Z,7.94
2022-11-27T18:18:48.596Z,7.94
2022-11-27T18:19:48.586Z,7.92
2022-11-27T18:20:48.576Z,7.92
2022-11-27T18:21:48.577Z,7.89
2022-11-27T18:22:48.545Z,7.90
2022-11-27T18:24:49.516Z,7.87
2022-11-27T18:25:49.156Z,7.89
2022-11-27T18:27:49.478Z,7.94
2022-11-27T18:28:48.476Z,7.94
2022-11-27T18:29:48.574Z,7.93
2022-11-27T18:30:48.445Z,7.92
2022-11-27T18:31:48.468Z,7.92
2022-11-27T18:32:48.417Z,7.90
2022-11-27T18:33:48.403Z,7.92
2022-11-27T18:34:48.384Z,7.92
2022-11-27T18:35:48.384Z,7.90
2022-11-27T18:36:48.375Z,7.93
2022-11-27T18:37:48.354Z,7.94
2022-11-27T18:38:48.325Z,7.94
2022-11-27T18:39:48.344Z,7.97
2022-11-27T18:40:48.304Z,7.97
2022-11-27T18:41:48.324Z,7.96
2022-11-27T18:42:48.291Z,7.96
2022-11-27T18:43:48.285Z,7.93
2022-11-27T18:44:48.253Z,7.90
2022-11-27T18:45:48.285Z,7.84
2022-11-27T18:46:48.275Z,7.82
2022-11-27T18:47:48.222Z,7.81
2022-11-27T18:48:48.227Z,7.78
2022-11-27T18:49:48.193Z,7.75
2022-11-27T18:50:48.173Z,7.74
2022-11-27T18:51:48.181Z,7.72